PWSweather.com
Personal Weather Stations
Station Observations
2450ARBOR
Round Rock, TX 78681

Round Rock, TX 78681

Lat: 30.535239, Lon: -97.728137

Elevation: 800

Station Type:

High Low Average
Temperature 0.0°F0.0°F 0.0°F0.0°F 0.0°F0.0°F
Dew Point 0.0°F0.0°F 0.0°F0.0°F 0.0°F0.0°F
Winds Calm -Calm - Calm Calm Calm Calm
Wind Gusts -- -- --
Humidity 0% 0% 0%
Pressure 0.00 in0.00 in 0.00 in0.00 in -
Precipitation 0.00 in0.0 mm - -
Hour Temp Dew Point Humidity Winds Wind Gusts Pressure Precip Precip Rate Daily Precip Total
10:14 PM 66.4°F19.1°C 47.7°F8.7°C 51% Calm Calm -- 29.08 in984.8 mb 0.00 in0.0 mm 0.00 in0.0 mm 0.00 in0.0 mm
10:15 PM 66.4°F19.1°C 47.7°F8.7°C 51% Calm Calm -- 29.08 in984.8 mb 0.00 in0.0 mm 0.00 in0.0 mm 0.00 in0.0 mm
10:16 PM 66.4°F19.1°C 47.7°F8.7°C 51% Calm Calm -- 29.08 in984.8 mb 0.00 in0.0 mm 0.00 in0.0 mm 0.00 in0.0 mm
10:17 PM 66.4°F19.1°C 48.2°F9.0°C 52% Calm Calm -- 29.08 in984.8 mb 0.00 in0.0 mm 0.00 in0.0 mm 0.00 in0.0 mm
10:18 PM 66.4°F19.1°C 48.2°F9.0°C 52% Calm Calm -- 29.08 in984.8 mb 0.00 in0.0 mm 0.00 in0.0 mm 0.00 in0.0 mm
10:19 PM 66.2°F19.0°C 48.0°F8.9°C 52% Calm Calm -- 29.08 in984.8 mb 0.00 in0.0 mm 0.00 in0.0 mm 0.00 in0.0 mm
10:20 PM 66.2°F19.0°C 48.0°F8.9°C 52% Calm Calm -- 29.08 in984.8 mb 0.00 in0.0 mm 0.00 in0.0 mm 0.00 in0.0 mm
10:21 PM 66.2°F19.0°C 48.6°F9.2°C 53% Calm Calm -- 29.08 in984.8 mb 0.00 in0.0 mm 0.00 in0.0 mm 0.00 in0.0 mm
10:22 PM 66.2°F19.0°C 49.1°F9.5°C 54% Calm Calm -- 29.08 in984.8 mb 0.00 in0.0 mm 0.00 in0.0 mm 0.00 in0.0 mm
10:23 PM 66.2°F19.0°C 49.1°F9.5°C 54% Calm Calm -- 29.08 in984.8 mb 0.00 in0.0 mm 0.00 in0.0 mm 0.00 in0.0 mm
10:24 PM 66.2°F19.0°C 50.0°F10.0°C 56% Calm Calm -- 29.08 in984.8 mb 0.00 in0.0 mm 0.00 in0.0 mm 0.00 in0.0 mm
10:25 PM 66.2°F19.0°C 50.0°F10.0°C 56% Calm Calm -- 29.08 in984.8 mb 0.00 in0.0 mm 0.00 in0.0 mm 0.00 in0.0 mm
10:26 PM 66.2°F19.0°C 51.0°F10.6°C 58% Calm Calm -- 29.08 in984.8 mb 0.00 in0.0 mm 0.00 in0.0 mm 0.00 in0.0 mm
10:27 PM 66.4°F19.1°C 51.6°F10.9°C 59% Calm Calm -- 29.08 in984.8 mb 0.00 in0.0 mm 0.00 in0.0 mm 0.00 in0.0 mm
10:28 PM 66.4°F19.1°C 51.6°F10.9°C 59% 1.7 mph SSW2.7 kmh SSW 1.7 mph2.7 kmh 29.08 in984.8 mb 0.00 in0.0 mm 0.00 in0.0 mm 0.00 in0.0 mm
10:29 PM 66.6°F19.2°C 53.6°F12.0°C 63% Calm Calm 1.7 mph2.7 kmh 29.08 in984.8 mb 0.00 in0.0 mm 0.00 in0.0 mm 0.00 in0.0 mm
10:30 PM 66.7°F19.3°C 54.1°F12.3°C 64% Calm Calm 1.7 mph2.7 kmh 29.08 in984.8 mb 0.00 in0.0 mm 0.00 in0.0 mm 0.00 in0.0 mm
10:31 PM 66.9°F19.4°C 54.7°F12.6°C 65% Calm Calm 1.7 mph2.7 kmh 29.08 in984.8 mb 0.00 in0.0 mm 0.00 in0.0 mm 0.00 in0.0 mm
10:32 PM 67.1°F19.5°C 55.4°F13.0°C 66% 1.1 mph SSW1.8 kmh SSW 1.7 mph2.7 kmh 29.08 in984.8 mb 0.00 in0.0 mm 0.00 in0.0 mm 0.00 in0.0 mm
10:33 PM 67.1°F19.5°C 55.4°F13.0°C 66% Calm Calm 1.7 mph2.7 kmh 29.08 in984.8 mb 0.00 in0.0 mm 0.00 in0.0 mm 0.00 in0.0 mm
10:34 PM 67.1°F19.5°C 55.4°F13.0°C 66% Calm Calm 1.7 mph2.7 kmh 29.08 in984.8 mb 0.00 in0.0 mm 0.00 in0.0 mm 0.00 in0.0 mm
10:35 PM 67.3°F19.6°C 56.0°F13.3°C 67% Calm Calm 1.7 mph2.7 kmh 29.08 in984.8 mb 0.00 in0.0 mm 0.00 in0.0 mm 0.00 in0.0 mm
10:36 PM 67.3°F19.6°C 56.0°F13.3°C 67% Calm Calm 1.7 mph2.7 kmh 29.08 in984.8 mb 0.00 in0.0 mm 0.00 in0.0 mm 0.00 in0.0 mm
10:37 PM 67.3°F19.6°C 56.0°F13.3°C 67% Calm Calm 1.7 mph2.7 kmh 29.08 in984.8 mb 0.00 in0.0 mm 0.00 in0.0 mm 0.00 in0.0 mm
10:38 PM 67.6°F19.8°C 56.2°F13.4°C 67% Calm Calm 1.7 mph2.7 kmh 29.08 in984.8 mb 0.00 in0.0 mm 0.00 in0.0 mm 0.00 in0.0 mm
10:39 PM 67.6°F19.8°C 56.2°F13.4°C 67% Calm Calm 1.1 mph1.8 kmh 29.08 in984.8 mb 0.00 in0.0 mm 0.00 in0.0 mm 0.00 in0.0 mm
10:40 PM 67.6°F19.8°C 55.8°F13.2°C 66% Calm Calm 1.1 mph1.8 kmh 29.08 in984.8 mb 0.00 in0.0 mm 0.00 in0.0 mm 0.00 in0.0 mm
10:41 PM 67.6°F19.8°C 56.2°F13.4°C 67% Calm Calm 1.1 mph1.8 kmh 29.08 in984.8 mb 0.00 in0.0 mm 0.00 in0.0 mm 0.00 in0.0 mm
10:42 PM 67.8°F19.9°C 56.4°F13.6°C 67% Calm Calm 1.1 mph1.8 kmh 29.08 in984.8 mb 0.00 in0.0 mm 0.00 in0.0 mm 0.00 in0.0 mm
10:43 PM 68.0°F20.0°C 56.6°F13.7°C 67% Calm Calm -- 29.08 in984.8 mb 0.00 in0.0 mm 0.00 in0.0 mm 0.00 in0.0 mm
10:44 PM 68.0°F20.0°C 56.6°F13.7°C 67% Calm Calm -- 29.08 in984.8 mb 0.00 in0.0 mm 0.00 in0.0 mm 0.00 in0.0 mm
10:45 PM 68.0°F20.0°C 56.2°F13.4°C 66% Calm Calm -- 29.08 in984.8 mb 0.00 in0.0 mm 0.00 in0.0 mm 0.00 in0.0 mm
10:46 PM 68.0°F20.0°C 56.6°F13.7°C 67% Calm Calm -- 29.08 in984.8 mb 0.00 in0.0 mm 0.00 in0.0 mm 0.00 in0.0 mm
10:47 PM 68.0°F20.0°C 57.0°F13.9°C 68% Calm Calm -- 29.08 in984.8 mb 0.00 in0.0 mm 0.00 in0.0 mm 0.00 in0.0 mm
10:48 PM 68.2°F20.1°C 57.2°F14.0°C 68% Calm Calm -- 29.08 in984.8 mb 0.00 in0.0 mm 0.00 in0.0 mm 0.00 in0.0 mm
10:49 PM 68.2°F20.1°C 57.2°F14.0°C 68% Calm Calm -- 29.08 in984.8 mb 0.00 in0.0 mm 0.00 in0.0 mm 0.00 in0.0 mm
10:50 PM 68.2°F20.1°C 57.2°F14.0°C 68% Calm Calm -- 29.08 in984.8 mb 0.00 in0.0 mm 0.00 in0.0 mm 0.00 in0.0 mm
10:51 PM 68.2°F20.1°C 56.8°F13.8°C 67% Calm Calm -- 29.08 in984.8 mb 0.00 in0.0 mm 0.00 in0.0 mm 0.00 in0.0 mm
10:52 PM 68.2°F20.1°C 56.8°F13.8°C 67% Calm Calm -- 29.08 in984.8 mb 0.00 in0.0 mm 0.00 in0.0 mm 0.00 in0.0 mm
10:53 PM 68.2°F20.1°C 57.2°F14.0°C 68% Calm Calm -- 29.08 in984.8 mb 0.00 in0.0 mm 0.00 in0.0 mm 0.00 in0.0 mm
10:54 PM 68.2°F20.1°C 57.2°F14.0°C 68% Calm Calm -- 29.08 in984.8 mb 0.00 in0.0 mm 0.00 in0.0 mm 0.00 in0.0 mm
10:55 PM 68.2°F20.1°C 57.2°F14.0°C 68% Calm Calm -- 29.08 in984.8 mb 0.00 in0.0 mm 0.00 in0.0 mm 0.00 in0.0 mm
10:56 PM 68.2°F20.1°C 56.8°F13.8°C 67% Calm Calm -- 29.08 in984.8 mb 0.00 in0.0 mm 0.00 in0.0 mm 0.00 in0.0 mm
10:57 PM 68.2°F20.1°C 56.8°F13.8°C 67% Calm Calm -- 29.09 in985.1 mb 0.00 in0.0 mm 0.00 in0.0 mm 0.00 in0.0 mm
10:58 PM 68.2°F20.1°C 56.8°F13.8°C 67% Calm Calm -- 29.09 in985.1 mb 0.00 in0.0 mm 0.00 in0.0 mm 0.00 in0.0 mm
10:59 PM 68.2°F20.1°C 57.6°F14.2°C 69% Calm Calm -- 29.09 in985.1 mb 0.00 in0.0 mm 0.00 in0.0 mm 0.00 in0.0 mm
11:00 PM 68.2°F20.1°C 57.2°F14.0°C 68% Calm Calm -- 29.09 in985.1 mb 0.00 in0.0 mm 0.00 in0.0 mm 0.00 in0.0 mm
11:01 PM 68.2°F20.1°C 57.2°F14.0°C 68% Calm Calm -- 29.09 in985.1 mb 0.00 in0.0 mm 0.00 in0.0 mm 0.00 in0.0 mm
11:02 PM 68.2°F20.1°C 56.8°F13.8°C 67% Calm Calm -- 29.09 in985.1 mb 0.00 in0.0 mm 0.00 in0.0 mm 0.00 in0.0 mm
11:03 PM 68.2°F20.1°C 56.4°F13.6°C 66% Calm Calm -- 29.09 in985.1 mb 0.00 in0.0 mm 0.00 in0.0 mm 0.00 in0.0 mm
11:04 PM 68.2°F20.1°C 56.4°F13.6°C 66% Calm Calm -- 29.09 in985.1 mb 0.00 in0.0 mm 0.00 in0.0 mm 0.00 in0.0 mm
11:05 PM 68.2°F20.1°C 56.8°F13.8°C 67% Calm Calm -- 29.09 in985.1 mb 0.00 in0.0 mm 0.00 in0.0 mm 0.00 in0.0 mm
11:06 PM 68.2°F20.1°C 56.8°F13.8°C 67% Calm Calm -- 29.09 in985.1 mb 0.00 in0.0 mm 0.00 in0.0 mm 0.00 in0.0 mm
11:07 PM 68.2°F20.1°C 56.8°F13.8°C 67% Calm Calm -- 29.09 in985.1 mb 0.00 in0.0 mm 0.00 in0.0 mm 0.00 in0.0 mm
11:08 PM 68.2°F20.1°C 56.8°F13.8°C 67% Calm Calm -- 29.09 in985.1 mb 0.00 in0.0 mm 0.00 in0.0 mm 0.00 in0.0 mm
11:09 PM 68.2°F20.1°C 56.8°F13.8°C 67% Calm Calm -- 29.08 in984.8 mb 0.00 in0.0 mm 0.00 in0.0 mm 0.00 in0.0 mm
11:10 PM 68.2°F20.1°C 56.8°F13.8°C 67% Calm Calm -- 29.08 in984.8 mb 0.00 in0.0 mm 0.00 in0.0 mm 0.00 in0.0 mm
11:11 PM 68.0°F20.0°C 56.6°F13.7°C 67% Calm Calm -- 29.08 in984.8 mb 0.00 in0.0 mm 0.00 in0.0 mm 0.00 in0.0 mm
11:12 PM 68.0°F20.0°C 56.2°F13.4°C 66% Calm Calm -- 29.08 in984.8 mb 0.00 in0.0 mm 0.00 in0.0 mm 0.00 in0.0 mm
11:13 PM 68.0°F20.0°C 56.2°F13.4°C 66% Calm Calm -- 29.08 in984.8 mb 0.00 in0.0 mm 0.00 in0.0 mm 0.00 in0.0 mm
11:14 PM 68.0°F20.0°C 56.6°F13.7°C 67% Calm Calm -- 29.08 in984.8 mb 0.00 in0.0 mm 0.00 in0.0 mm 0.00 in0.0 mm
11:15 PM 68.0°F20.0°C 56.6°F13.7°C 67% Calm Calm -- 29.08 in984.8 mb 0.00 in0.0 mm 0.00 in0.0 mm 0.00 in0.0 mm
11:16 PM 67.8°F19.9°C 56.4°F13.6°C 67% Calm Calm -- 29.08 in984.8 mb 0.00 in0.0 mm 0.00 in0.0 mm 0.00 in0.0 mm
11:17 PM 67.8°F19.9°C 56.8°F13.8°C 68% Calm Calm -- 29.08 in984.8 mb 0.00 in0.0 mm 0.00 in0.0 mm 0.00 in0.0 mm
11:18 PM 67.8°F19.9°C 56.8°F13.8°C 68% Calm Calm -- 29.08 in984.8 mb 0.00 in0.0 mm 0.00 in0.0 mm 0.00 in0.0 mm
11:19 PM 67.8°F19.9°C 56.8°F13.8°C 68% Calm Calm -- 29.08 in984.8 mb 0.00 in0.0 mm 0.00 in0.0 mm 0.00 in0.0 mm
11:20 PM 67.6°F19.8°C 56.7°F13.7°C 68% Calm Calm -- 29.08 in984.8 mb 0.00 in0.0 mm 0.00 in0.0 mm 0.00 in0.0 mm
11:21 PM 67.6°F19.8°C 56.7°F13.7°C 68% Calm Calm -- 29.09 in985.1 mb 0.00 in0.0 mm 0.00 in0.0 mm 0.00 in0.0 mm
11:22 PM 67.6°F19.8°C 56.7°F13.7°C 68% Calm Calm -- 29.09 in985.1 mb 0.00 in0.0 mm 0.00 in0.0 mm 0.00 in0.0 mm
11:23 PM 67.6°F19.8°C 56.7°F13.7°C 68% Calm Calm -- 29.09 in985.1 mb 0.00 in0.0 mm 0.00 in0.0 mm 0.00 in0.0 mm
11:24 PM 67.5°F19.7°C 56.6°F13.7°C 68% Calm Calm -- 29.09 in985.1 mb 0.00 in0.0 mm 0.00 in0.0 mm 0.00 in0.0 mm
11:25 PM 67.5°F19.7°C 56.1°F13.4°C 67% Calm Calm -- 29.09 in985.1 mb 0.00 in0.0 mm 0.00 in0.0 mm 0.00 in0.0 mm
11:26 PM 67.5°F19.7°C 56.1°F13.4°C 67% Calm Calm -- 29.09 in985.1 mb 0.00 in0.0 mm 0.00 in0.0 mm 0.00 in0.0 mm
11:27 PM 67.5°F19.7°C 56.1°F13.4°C 67% Calm Calm -- 29.09 in985.1 mb 0.00 in0.0 mm 0.00 in0.0 mm 0.00 in0.0 mm
11:28 PM 67.5°F19.7°C 56.1°F13.4°C 67% Calm Calm -- 29.09 in985.1 mb 0.00 in0.0 mm 0.00 in0.0 mm 0.00 in0.0 mm
11:29 PM 67.5°F19.7°C 56.1°F13.4°C 67% Calm Calm -- 29.09 in985.1 mb 0.00 in0.0 mm 0.00 in0.0 mm 0.00 in0.0 mm
11:30 PM 67.5°F19.7°C 56.1°F13.4°C 67% Calm Calm -- 29.09 in985.1 mb 0.00 in0.0 mm 0.00 in0.0 mm 0.00 in0.0 mm
11:31 PM 67.3°F19.6°C 56.0°F13.3°C 67% Calm Calm -- 29.09 in985.1 mb 0.00 in0.0 mm 0.00 in0.0 mm 0.00 in0.0 mm
11:32 PM 67.3°F19.6°C 56.0°F13.3°C 67% Calm Calm -- 29.09 in985.1 mb 0.00 in0.0 mm 0.00 in0.0 mm 0.00 in0.0 mm
11:33 PM 67.3°F19.6°C 55.5°F13.1°C 66% Calm Calm -- 29.09 in985.1 mb 0.00 in0.0 mm 0.00 in0.0 mm 0.00 in0.0 mm
11:34 PM 67.1°F19.5°C 55.4°F13.0°C 66% Calm Calm -- 29.09 in985.1 mb 0.00 in0.0 mm 0.00 in0.0 mm 0.00 in0.0 mm
11:35 PM 67.1°F19.5°C 55.4°F13.0°C 66% Calm Calm -- 29.09 in985.1 mb 0.00 in0.0 mm 0.00 in0.0 mm 0.00 in0.0 mm
11:36 PM 67.1°F19.5°C 55.4°F13.0°C 66% Calm Calm -- 29.09 in985.1 mb 0.00 in0.0 mm 0.00 in0.0 mm 0.00 in0.0 mm
11:37 PM 67.1°F19.5°C 55.4°F13.0°C 66% Calm Calm -- 29.09 in985.1 mb 0.00 in0.0 mm 0.00 in0.0 mm 0.00 in0.0 mm
11:38 PM 66.9°F19.4°C 55.2°F12.9°C 66% Calm Calm -- 29.09 in985.1 mb 0.00 in0.0 mm 0.00 in0.0 mm 0.00 in0.0 mm
11:39 PM 66.9°F19.4°C 55.2°F12.9°C 66% Calm Calm -- 29.09 in985.1 mb 0.00 in0.0 mm 0.00 in0.0 mm 0.00 in0.0 mm
11:40 PM 66.9°F19.4°C 55.2°F12.9°C 66% Calm Calm -- 29.09 in985.1 mb 0.00 in0.0 mm 0.00 in0.0 mm 0.00 in0.0 mm
11:41 PM 66.7°F19.3°C 55.0°F12.8°C 66% Calm Calm -- 29.09 in985.1 mb 0.00 in0.0 mm 0.00 in0.0 mm 0.00 in0.0 mm
11:42 PM 66.7°F19.3°C 55.0°F12.8°C 66% Calm Calm -- 29.09 in985.1 mb 0.00 in0.0 mm 0.00 in0.0 mm 0.00 in0.0 mm
11:43 PM 66.6°F19.2°C 54.9°F12.7°C 66% Calm Calm -- 29.09 in985.1 mb 0.00 in0.0 mm 0.00 in0.0 mm 0.00 in0.0 mm
11:44 PM 66.6°F19.2°C 54.9°F12.7°C 66% Calm Calm -- 29.09 in985.1 mb 0.00 in0.0 mm 0.00 in0.0 mm 0.00 in0.0 mm
11:45 PM 66.6°F19.2°C 54.9°F12.7°C 66% Calm Calm -- 29.09 in985.1 mb 0.00 in0.0 mm 0.00 in0.0 mm 0.00 in0.0 mm
11:46 PM 66.6°F19.2°C 54.9°F12.7°C 66% Calm Calm -- 29.09 in985.1 mb 0.00 in0.0 mm 0.00 in0.0 mm 0.00 in0.0 mm
11:47 PM 66.4°F19.1°C 54.7°F12.6°C 66% Calm Calm -- 29.09 in985.1 mb 0.00 in0.0 mm 0.00 in0.0 mm 0.00 in0.0 mm
11:48 PM 66.4°F19.1°C 54.7°F12.6°C 66% Calm Calm -- 29.09 in985.1 mb 0.00 in0.0 mm 0.00 in0.0 mm 0.00 in0.0 mm
11:49 PM 66.4°F19.1°C 54.7°F12.6°C 66% Calm Calm -- 29.09 in985.1 mb 0.00 in0.0 mm 0.00 in0.0 mm 0.00 in0.0 mm
11:50 PM 66.2°F19.0°C 54.5°F12.5°C 66% Calm Calm -- 29.09 in985.1 mb 0.00 in0.0 mm 0.00 in0.0 mm 0.00 in0.0 mm
11:51 PM 66.2°F19.0°C 54.9°F12.7°C 67% Calm Calm -- 29.09 in985.1 mb 0.00 in0.0 mm 0.00 in0.0 mm 0.00 in0.0 mm
11:52 PM 66.2°F19.0°C 54.9°F12.7°C 67% Calm Calm -- 29.09 in985.1 mb 0.00 in0.0 mm 0.00 in0.0 mm 0.00 in0.0 mm
11:53 PM 66.0°F18.9°C 54.7°F12.6°C 67% Calm Calm -- 29.09 in985.1 mb 0.00 in0.0 mm 0.00 in0.0 mm 0.00 in0.0 mm
11:54 PM 66.0°F18.9°C 54.7°F12.6°C 67% Calm Calm -- 29.09 in985.1 mb 0.00 in0.0 mm 0.00 in0.0 mm 0.00 in0.0 mm
11:55 PM 66.0°F18.9°C 54.7°F12.6°C 67% Calm Calm -- 29.09 in985.1 mb 0.00 in0.0 mm 0.00 in0.0 mm 0.00 in0.0 mm
11:56 PM 65.8°F18.8°C 54.9°F12.7°C 68% Calm Calm -- 29.09 in985.1 mb 0.00 in0.0 mm 0.00 in0.0 mm 0.00 in0.0 mm
11:57 PM 65.8°F18.8°C 54.9°F12.7°C 68% Calm Calm -- 29.09 in985.1 mb 0.00 in0.0 mm 0.00 in0.0 mm 0.00 in0.0 mm
11:58 PM 65.8°F18.8°C 54.9°F12.7°C 68% Calm Calm -- 29.09 in985.1 mb 0.00 in0.0 mm 0.00 in0.0 mm 0.00 in0.0 mm
11:59 PM 65.8°F18.8°C 54.9°F12.7°C 68% Calm Calm -- 29.09 in985.1 mb 0.00 in0.0 mm 0.00 in0.0 mm 0.00 in0.0 mm